• Join FlightAware (Why Join?)
  • Login
  • US Flag 
06:41AM EDT


 

Airport Tracker/Info


-or-


 

Live Flight TrackerFlight Track Log ✈ FDX120 ✈ 23-Aug-2013 ✈ KMEM - CYEG

Flight Track Log - Related Links

Times and Time Zones

All times are in EDT time to prevent confusion due to time zone crossing. See the FDX120 flight status page for this flight to view local times or setup timezone preferences in your user account.

Time Position Orientation Groundspeed Altitude Reporting Facility
EDT Latitude Longitude Course Direction KTS MPH feet Rate Location/Type
05:18AM 35.0667 -90.0167 270° West 167 192 1,800  Level KMEM
05:19AM 35.0667 -90.0667 270° West 206 237 3,000 2,040 Climbing KMEM
05:20AM 35.0667 -90.1667 270° West 285 328 5,700 2,760 Climbing KMEM
05:21AM 35.1167 -90.2333 313° West 286 329 8,800 2,640 Climbing KMEM
05:22AM 35.1742 -90.3367 304° West 323 372 11,400 1,860 Climbing Memphis Center
05:23AM 35.2325 -90.4258 309° West 346 398 12,800 1,860 Climbing Memphis Center
05:24AM 35.2972 -90.5325 307° West 381 438 15,200 2,220 Climbing Memphis Center
05:25AM 35.3658 -90.6397 308° West 398 458 17,300 1,740 Climbing Memphis Center
05:31AM 35.8080 -91.3110 308° West 469 540 27,000 1,500 Climbing FlightAware
05:31AM 35.8500 -91.3770 308° West 469 540 27,000 1,800 Level FlightAware
05:32AM 35.9030 -91.4560 310° West 462 532 29,100 2,580 Climbing FlightAware
05:32AM 35.9510 -91.5300 309° West 462 532 30,000 1,500 Climbing FlightAware
05:33AM 36.0080 -91.6160 309° West 459 528 31,100 1,500 Climbing FlightAware
05:34AM 36.0530 -91.6880 308° West 456 525 32,000 780 Climbing FlightAware
05:34AM 36.0970 -91.7560 309° West 463 533 32,000  Level FlightAware
05:35AM 36.1450 -91.8280 310° West 461 531 32,000  Level FlightAware
05:35AM 36.1940 -91.9040 309° West 461 531 32,000  Level FlightAware
05:36AM 36.2360 -91.9710 308° West 461 531 32,000  Level FlightAware
05:37AM 36.2840 -92.0450 309° West 462 532 32,000  Level FlightAware
05:37AM 36.3310 -92.1180 309° West 462 532 32,000  Level FlightAware
05:38AM 36.3770 -92.1900 308° West 458 527 32,000  Level FlightAware
05:38AM 36.4350 -92.2810 308° West 457 526 32,000  Level FlightAware
05:39AM 36.4810 -92.3560 307° West 457 526 32,000  Level FlightAware
05:40AM 36.5240 -92.4220 309° West 457 526 32,000  Level FlightAware
05:40AM 36.5710 -92.4960 308° West 458 527 32,000  Level FlightAware
05:41AM 36.6140 -92.5630 309° West 461 531 32,000  Level FlightAware
05:41AM 36.6630 -92.6420 308° West 458 527 32,000  Level FlightAware
05:42AM 36.7080 -92.7130 308° West 461 531 32,000  Level FlightAware
05:43AM 36.7550 -92.7890 308° West 462 532 32,000  Level FlightAware
05:43AM 36.8020 -92.8640 308° West 458 527 32,000  Level FlightAware
05:44AM 36.8490 -92.9390 308° West 459 528 32,000  Level FlightAware
05:44AM 36.8900 -93.0040 308° West 459 528 32,000  Level FlightAware
05:45AM 36.9400 -93.0850 308° West 456 525 32,000  Level FlightAware
05:45AM 36.9870 -93.1600 308° West 454 522 32,000  Level FlightAware
05:46AM 37.0280 -93.2270 307° West 454 522 32,000  Level FlightAware
05:47AM 37.0750 -93.3020 308° West 456 525 32,000  Level FlightAware
05:47AM 37.1180 -93.3710 308° West 458 527 32,000  Level FlightAware
05:48AM 37.1650 -93.4490 307° West 458 527 32,000  Level FlightAware
05:48AM 37.2070 -93.5170 308° West 460 529 32,000  Level FlightAware
05:49AM 37.2520 -93.5910 307° West 460 529 32,000  Level FlightAware
05:50AM 37.3000 -93.6690 308° West 458 527 32,000  Level FlightAware
05:50AM 37.3480 -93.7470 308° West 455 524 32,000  Level FlightAware
05:51AM 37.3890 -93.8160 307° West 451 519 32,000  Level FlightAware
05:51AM 37.4340 -93.8910 307° West 450 518 32,000  Level FlightAware
05:52AM 37.4810 -93.9660 308° West 454 522 32,000  Level FlightAware
05:52AM 37.5240 -94.0310 310° West 454 522 32,000  Level FlightAware
05:53AM 37.5740 -94.0930 316° Northwest 454 522 32,000  Level FlightAware
05:54AM 37.6350 -94.1680 316° Northwest 453 521 32,000  Level FlightAware
05:54AM 37.6830 -94.2280 315° West 452 520 32,000  Level FlightAware
05:55AM 37.7360 -94.2950 315° West 451 519 32,000  Level FlightAware
05:55AM 37.7860 -94.3580 315° West 451 519 32,000  Level FlightAware
05:56AM 37.8410 -94.4270 315° West 450 518 32,000  Level FlightAware
05:57AM 37.8900 -94.4890 315° West 451 519 32,000  Level FlightAware
05:57AM 37.9420 -94.5550 315° West 451 519 32,000  Level FlightAware
05:58AM 37.9950 -94.6240 314° West 453 521 32,000  Level FlightAware
05:58AM 38.0430 -94.6850 315° West 453 521 32,000  Level FlightAware
05:59AM 38.0940 -94.7490 315° West 453 521 32,000  Level FlightAware
05:59AM 38.1450 -94.8170 314° West 452 520 32,000  Level FlightAware
06:00AM 38.1990 -94.8850 315° West 449 517 32,000  Level FlightAware
06:01AM 38.2520 -94.9520 315° West 447 514 32,000  Level FlightAware
06:01AM 38.3000 -95.0160 314° West 446 513 32,000  Level FlightAware
06:02AM 38.3530 -95.0840 315° West 447 514 32,000  Level FlightAware
06:02AM 38.4050 -95.1520 314° West 449 517 32,000  Level FlightAware
06:03AM 38.4580 -95.2200 315° West 449 517 32,000  Level FlightAware
06:04AM 38.5040 -95.2800 314° West 449 517 32,000  Level FlightAware
06:04AM 38.5570 -95.3490 314° West 451 519 32,000  Level FlightAware
06:05AM 38.6090 -95.4170 314° West 451 519 32,000  Level FlightAware
06:05AM 38.6550 -95.4780 314° West 449 517 32,000  Level FlightAware
06:06AM 38.7080 -95.5470 315° West 447 514 32,000  Level FlightAware
06:06AM 38.7600 -95.6150 314° West 446 513 32,000  Level FlightAware
06:07AM 38.8060 -95.6760 314° West 445 512 32,000  Level FlightAware
06:08AM 38.8610 -95.7480 314° West 446 513 32,000  Level FlightAware
06:08AM 38.9090 -95.8110 314° West 448 516 32,000  Level FlightAware
06:09AM 38.9630 -95.8840 314° West 449 517 32,000  Level FlightAware
06:09AM 39.0140 -95.9510 314° West 450 518 32,000  Level FlightAware
06:10AM 39.0580 -96.0110 313° West 451 519 32,000  Level FlightAware
06:11AM 39.1090 -96.0790 314° West 451 519 32,000  Level FlightAware
06:11AM 39.1580 -96.1440 314° West 449 517 32,000  Level FlightAware
06:12AM 39.2110 -96.2160 314° West 449 517 32,000  Level FlightAware
06:12AM 39.2630 -96.2860 314° West 451 519 32,000  Level FlightAware
06:13AM 39.3160 -96.3560 314° West 452 520 32,000  Level FlightAware
06:13AM 39.3630 -96.4180 314° West 451 519 32,000  Level FlightAware
06:14AM 39.4170 -96.4930 313° West 452 520 32,000  Level FlightAware
06:15AM 39.4680 -96.5630 313° West 452 520 32,000  Level FlightAware
06:15AM 39.5200 -96.6340 314° West 452 520 32,000  Level FlightAware
06:16AM 39.4460 -96.5320 133° Southeast 452 520 32,000  Level FlightAware
06:17AM 39.6300 -96.7840 314° West 454 522 32,000  Level FlightAware
06:17AM 39.6780 -96.8490 314° West 455 524 32,000  Level FlightAware
06:18AM 39.7300 -96.9210 313° West 456 525 32,000  Level FlightAware
06:18AM 39.7800 -96.9910 313° West 455 524 32,000  Level FlightAware
06:19AM 39.8330 -97.0640 313° West 454 522 32,000  Level FlightAware
06:19AM 39.8770 -97.1240 314° West 453 521 32,000  Level FlightAware
06:20AM 39.9300 -97.1980 313° West 453 521 32,000  Level FlightAware
06:21AM 39.9820 -97.2700 313° West 455 524 32,000  Level FlightAware
06:21AM 40.0300 -97.3360 314° West 455 524 32,000  Level FlightAware
06:22AM 40.0830 -97.4100 313° West 455 524 32,000  Level FlightAware
06:22AM 40.1280 -97.4730 313° West 455 524 32,000  Level FlightAware
06:23AM 40.1770 -97.5430 313° West 453 521 32,000  Level FlightAware
06:24AM 40.2300 -97.6180 313° West 453 521 32,000  Level FlightAware
06:24AM 40.2960 -97.7090 314° West 452 520 32,000  Level FlightAware
06:25AM 40.3390 -97.7700 313° West 452 520 32,000  Level FlightAware
06:25AM 40.3830 -97.8320 313° West 452 520 32,000  Level FlightAware
06:26AM 40.4380 -97.9110 312° West 453 521 32,000  Level FlightAware
06:27AM 40.5000 -97.9980 313° West 453 521 32,000  Level FlightAware
06:27AM 40.5520 -98.0650 316° Northwest 453 521 32,000  Level FlightAware
06:28AM 40.6010 -98.1260 317° Northwest 452 520 32,000  Level FlightAware
06:28AM 40.6490 -98.1860 317° Northwest 452 520 32,000  Level FlightAware
06:29AM 40.7210 -98.2750 317° Northwest 452 520 32,000  Level FlightAware
06:30AM 40.7720 -98.3400 316° Northwest 452 520 32,000  Level FlightAware
06:31AM 40.8610 -98.4510 317° Northwest 453 521 32,000  Level FlightAware
06:31AM 40.8960 -98.4970 315° West 453 521 32,000  Level FlightAware
06:32AM 40.9420 -98.5560 316° Northwest 453 521 32,000  Level FlightAware
06:32AM 41.0140 -98.6450 317° Northwest 32,000  Level FlightAware
06:33AM 41.0810 -98.7310 316° Northwest 453 521 32,000  Level FlightAware
06:34AM 41.1280 -98.7910 316° Northwest 453 521 32,000  Level FlightAware
06:34AM 41.1740 -98.8500 316° Northwest 453 521 32,000  Level FlightAware
06:35AM 41.2200 -98.9090 316° Northwest 453 521 32,000  Level FlightAware
06:36AM 41.2660 -98.9680 316° Northwest 453 521 32,000  Level FlightAware
06:36AM 41.3120 -99.0270 316° Northwest 453 521 32,000  Level FlightAware
06:37AM 41.3580 -99.0870 316° Northwest 453 521 32,000  Level FlightAware
06:37AM 41.4040 -99.1460 316° Northwest 453 521 32,000  Level FlightAware
06:38AM 41.4500 -99.2060 316° Northwest 453 521 32,000  Level FlightAware
06:39AM 41.4970 -99.2650 317° Northwest 453 521 32,000  Level FlightAware
06:39AM 41.5440 -99.3260 316° Northwest 453 521 32,000  Level FlightAware
06:40AM 41.5910 -99.3870 316° Northwest 453 521 32,000  Level FlightAware
06:40AM 41.6370 -99.4470 316° Northwest 453 521 32,000  Level FlightAware
06:41AM 41.6840 -99.5070 316° Northwest 453 521 32,000  Level FlightAware
06:42AM 41.7310 -99.5680 316° Northwest 453 521 32,000  Level FlightAware
06:43AM 41.9472 -99.8594 316° Northwest 445 512 32,000  Level Minneapolis Center
06:44AM 42.0356 -99.9767 315° West 446 513 32,000  Level Minneapolis Center
06:45AM 42.1222 -100.0950 315° West 444 511 32,000  Level Minneapolis Center
06:46AM 42.2097 -100.2156 314° West 448 516 32,000  Level Minneapolis Center
06:47AM 42.2983 -100.3319 316° Northwest 446 513 32,000  Level Minneapolis Center
06:48AM 42.3864 -100.4503 315° West 445 512 32,000  Level Minneapolis Center
06:49AM 42.4733 -100.5717 314° West 448 516 32,000  Level Minneapolis Center
06:50AM 42.5614 -100.6883 316° Northwest 445 512 32,000  Level Minneapolis Center
06:51AM 42.6489 -100.8089 315° West 446 513 32,000  Level Minneapolis Center
06:52AM 42.7447 -100.9417 315° West 450 518 32,000  Level Denver Center
06:53AM 42.8258 -101.0514 315° West 443 510 32,000  Level Denver Center
06:54AM 42.9128 -101.1731 314° West 446 513 32,000  Level Denver Center
06:55AM 42.9997 -101.2942 314° West 447 514 32,000  Level Denver Center
06:56AM 43.0867 -101.4153 315° West 446 513 32,000  Level Denver Center
06:57AM 43.1714 -101.5356 314° West 440 506 32,000  Level Denver Center
06:58AM 43.2583 -101.6583 314° West 446 513 32,000  Level Denver Center
06:59AM 43.3439 -101.7792 314° West 443 510 32,000  Level Denver Center
07:00AM 43.4300 -101.9019 314° West 444 511 32,000  Level Denver Center
07:01AM 43.5183 -102.0197 316° Northwest 440 506 32,000  Level Denver Center
07:02AM 43.6281 -102.1167 327° Northwest 446 513 32,000  Level Denver Center
07:03AM 43.7453 -102.2183 328° Northwest 445 512 32,000  Level Denver Center
07:04AM 43.8453 -102.3078 327° Northwest 447 514 32,000  Level Denver Center
07:05AM 43.9383 -102.3922 327° Northwest 450 518 32,000  Level Denver Center
07:06AM 44.0433 -102.4867 327° Northwest 449 517 32,000  Level Denver Center
07:07AM 44.1506 -102.5839 327° Northwest 455 524 32,000  Level Denver Center
07:08AM 44.2561 -102.6803 327° Northwest 453 521 32,000  Level Denver Center
07:09AM 44.3611 -102.7753 327° Northwest 450 518 32,000  Level Denver Center
07:10AM 44.4664 -102.8725 327° Northwest 451 519 32,000  Level Denver Center
07:11AM 44.5697 -102.9675 327° Northwest 448 516 32,100 780 Climbing Denver Center
07:12AM 44.6756 -103.0650 327° Northwest 451 519 33,600 900 Climbing Denver Center
07:13AM 44.7794 -103.1625 326° Northwest 449 517 34,000 180 Climbing Denver Center
07:14AM 44.8833 -103.2586 327° Northwest 447 514 34,000  Level Denver Center
07:15AM 44.9958 -103.3608 327° Northwest 444 511 34,000  Level Salt Lake Center
07:16AM 45.0942 -103.4536 326° Northwest 441 507 34,000 -60 Level Salt Lake Center
07:17AM 45.1931 -103.5467 326° Northwest 441 507 33,900  Descending Salt Lake Center
07:18AM 45.2936 -103.6433 326° Northwest 437 503 34,000  Climbing Salt Lake Center
07:19AM 45.3958 -103.7417 326° Northwest 441 507 34,000  Level Salt Lake Center
07:20AM 45.4983 -103.8386 326° Northwest 443 510 34,000 -60 Level Salt Lake Center
07:21AM 45.5994 -103.9375 326° Northwest 441 507 33,900  Descending Salt Lake Center
07:22AM 45.7006 -104.0344 326° Northwest 439 505 34,000  Climbing Salt Lake Center
07:23AM 45.8033 -104.1350 326° Northwest 445 512 34,000  Level Salt Lake Center
07:24AM 45.9081 -104.2361 326° Northwest 451 519 34,000  Level Salt Lake Center
07:25AM 46.0114 -104.3394 325° Northwest 452 520 34,000  Level Salt Lake Center
07:26AM 46.1158 -104.4414 326° Northwest 454 522 34,000  Level Salt Lake Center
07:27AM 46.2253 -104.5514 325° Northwest 455 524 34,000  Level Salt Lake Center
07:28AM 46.3242 -104.6489 326° Northwest 455 524 34,000  Level Salt Lake Center
07:29AM 46.4281 -104.7525 326° Northwest 453 521 34,000  Level Salt Lake Center
07:30AM 46.5350 -104.8606 325° Northwest 452 520 34,000  Level Salt Lake Center
07:31AM 46.6333 -104.9606 325° Northwest 451 519 34,000  Level Salt Lake Center
07:32AM 46.7350 -105.0650 325° Northwest 449 517 34,000  Level Salt Lake Center
07:33AM 46.8381 -105.1689 325° Northwest 449 517 34,000  Level Salt Lake Center
07:34AM 46.9397 -105.2744 325° Northwest 449 517 34,000  Level Salt Lake Center
07:35AM 47.0414 -105.3806 325° Northwest 449 517 34,000  Level Salt Lake Center
07:36AM 47.1422 -105.4847 325° Northwest 447 514 34,000 -60 Level Salt Lake Center
07:37AM 47.2433 -105.5897 325° Northwest 446 513 33,900 -60 Descending Salt Lake Center
07:38AM 47.3442 -105.6950 325° Northwest 445 512 33,900  Level Salt Lake Center
07:39AM 47.4433 -105.7997 324° Northwest 443 510 34,000  Climbing Salt Lake Center
07:40AM 47.5436 -105.9058 324° Northwest 442 509 34,000 -60 Level Salt Lake Center
07:41AM 47.6436 -106.0117 325° Northwest 443 510 33,900  Descending Salt Lake Center
07:42AM 47.7453 -106.1181 325° Northwest 445 512 34,000  Climbing Salt Lake Center
07:43AM 47.8467 -106.2272 324° Northwest 449 517 34,000  Level Salt Lake Center
07:44AM 47.9475 -106.3347 324° Northwest 447 514 34,000 -60 Level Salt Lake Center
07:45AM 48.0478 -106.4425 324° Northwest 446 513 33,900  Descending Salt Lake Center
07:46AM 48.1472 -106.5544 323° Northwest 447 514 34,000  Climbing Salt Lake Center
07:47AM 48.2481 -106.6644 324° Northwest 447 514 34,000 -60 Level Salt Lake Center
07:53AM 48.6720 -107.1570 324° Northwest 34,000 -60 Level FlightAware
07:53AM 48.8414 -107.3611 324° Northwest 453 521 33,900 -120 Descending Salt Lake Center
07:54AM 48.9403 -107.4783 322° Northwest 453 521 33,900  Level Salt Lake Center
07:55AM 49.0392 -107.5978 322° Northwest 453 521 33,900  Level Salt Lake Center
07:56AM 49.1500 -107.7833 312° West 450 518 34,000  Climbing Winnipeg Center
07:57AM 49.2500 -107.9000 323° Northwest 460 529 34,000  Level Winnipeg Center
08:03AM 49.8340 -108.5740 323° Northwest 34,000  Level FlightAware
08:04AM 49.9380 -108.7050 321° Northwest 34,000  Level FlightAware
08:05AM 50.0320 -108.8250 321° Northwest 457 526 34,000  Level FlightAware
08:06AM 50.0910 -108.9000 321° Northwest 456 525 34,000  Level FlightAware
08:06AM 50.1430 -108.9650 321° Northwest 458 527 34,000  Level FlightAware
08:07AM 50.1960 -109.0340 320° Northwest 458 527 34,000  Level FlightAware
08:08AM 50.2760 -109.1380 320° Northwest 456 525 34,000  Level FlightAware
08:08AM 50.3250 -109.2030 320° Northwest 456 525 34,000  Level FlightAware
08:09AM 50.3790 -109.2730 320° Northwest 456 525 34,000  Level FlightAware
08:10AM 50.5110 -109.4420 321° Northwest 462 532 34,000  Level FlightAware
08:11AM 50.5790 -109.5300 321° Northwest 460 529 34,000  Level FlightAware
08:11AM 50.6410 -109.6110 320° Northwest 457 526 34,000  Level FlightAware
08:12AM 50.7050 -109.6960 320° Northwest 450 518 34,000  Level FlightAware
08:13AM 50.7570 -109.7660 320° Northwest 450 518 34,000  Level FlightAware
08:13AM 50.8050 -109.8320 319° Northwest 450 518 34,000  Level FlightAware
08:14AM 50.8830 -109.9320 321° Northwest 446 513 34,000  Level FlightAware
08:14AM 50.9300 -109.9950 320° Northwest 446 513 34,000  Level FlightAware
08:15AM 50.9810 -110.0560 323° Northwest 453 521 34,000  Level FlightAware
08:16AM 51.0530 -110.1390 324° Northwest 453 521 34,000  Level FlightAware
08:16AM 51.1190 -110.2100 326° Northwest 452 520 34,000  Level FlightAware
08:17AM 51.1940 -110.2950 325° Northwest 452 520 34,000  Level FlightAware
08:18AM 51.2810 -110.3950 324° Northwest 459 528 34,000  Level FlightAware
08:18AM 51.3380 -110.4600 325° Northwest 460 529 34,000  Level FlightAware
08:19AM 51.3940 -110.5250 324° Northwest 460 529 34,000  Level FlightAware
08:20AM 51.4710 -110.6130 325° Northwest 459 528 34,000  Level FlightAware
08:20AM 51.5320 -110.6850 324° Northwest 458 527 34,000  Level FlightAware
08:21AM 51.5920 -110.7550 324° Northwest 456 525 34,000  Level FlightAware
08:21AM 51.6510 -110.8230 324° Northwest 454 522 34,000  Level FlightAware
08:22AM 51.7120 -110.8940 324° Northwest 446 513 34,000  Level FlightAware
08:22AM 51.7690 -110.9620 324° Northwest 446 513 34,000  Level FlightAware
08:23AM 51.8300 -111.0340 324° Northwest 444 511 34,000  Level FlightAware
08:24AM 51.8830 -111.0970 324° Northwest 442 509 34,000  Level FlightAware
08:25AM 51.9800 -111.2120 324° Northwest 444 511 34,000  Level FlightAware
08:26AM 52.0740 -111.3250 324° Northwest 439 505 34,000  Level FlightAware
08:26AM 52.1360 -111.4010 323° Northwest 441 507 34,000  Level FlightAware
08:27AM 52.1940 -111.4720 323° Northwest 441 507 34,000  Level FlightAware
08:27AM 52.2640 -111.5540 324° Northwest 443 510 34,000  Level FlightAware
08:28AM 52.3110 -111.6110 323° Northwest 443 510 34,000  Level FlightAware
08:29AM 52.3790 -111.6940 323° Northwest 444 511 34,000  Level FlightAware
08:29AM 52.4340 -111.7610 323° Northwest 430 495 34,000  Level FlightAware
08:30AM 52.4930 -111.8330 323° Northwest 440 506 34,000  Level FlightAware
08:30AM 52.5600 -111.9160 323° Northwest 440 506 34,000 -480 Level FlightAware
08:31AM 52.6150 -111.9840 323° Northwest 430 495 33,400 -2,160 Descending FlightAware
08:32AM 52.6730 -112.0570 323° Northwest 449 517 31,500 -3,060 Descending FlightAware
08:32AM 52.7330 -112.1320 323° Northwest 447 514 29,800 -2,760 Descending FlightAware
08:33AM 52.7920 -112.2040 324° Northwest 447 514 28,300 -2,700 Descending FlightAware
08:33AM 52.8490 -112.2750 323° Northwest 444 511 26,700 -2,640 Descending FlightAware
08:34AM 52.9140 -112.3590 322° Northwest 438 504 25,000 -2,220 Descending FlightAware
08:35AM 52.9440 -112.4050 317° Northwest 438 504 24,100 -2,220 Descending FlightAware
08:35AM 52.9900 -112.4960 310° West 428 493 22,600 -2,580 Descending FlightAware
08:36AM 53.0370 -112.6330 300° West 416 479 20,500 -1,800 Descending FlightAware
08:37AM 53.0620 -112.7370 292° West 413 475 19,900 -2,760 Descending FlightAware
08:37AM 53.0690 -112.8000 281° West 404 465 18,000 -3,840 Descending FlightAware
08:37AM 53.0810 -112.9020 281° West 392 451 16,700 -2,340 Descending FlightAware
08:38AM 53.1190 -113.0030 302° West 392 451 15,100 -2,280 Descending FlightAware
08:39AM 53.1610 -113.0760 314° West 383 441 13,900 -2,040 Descending FlightAware
08:39AM 53.2040 -113.1520 313° West 371 427 12,700 -1,620 Descending FlightAware
08:40AM 53.2470 -113.2260 314° West 347 399 12,000 -960 Descending FlightAware
08:40AM 53.2770 -113.2790 313° West 326 375 11,700 -1,020 Descending FlightAware
08:41AM 53.3240 -113.3640 313° West 287 330 10,700 -1,620 Descending FlightAware
08:42AM 53.3410 -113.3950 313° West 281 323 9,900 -2,460 Descending FlightAware
08:42AM 53.3540 -113.4190 312° West 280 322 9,200 -2,340 Descending FlightAware
08:42AM 53.3700 -113.4610 303° West 277 319 8,500 -1,500 Descending FlightAware
08:42AM 53.3800 -113.4950 296° West 275 316 8,200 -840 Descending FlightAware
08:43AM 53.3890 -113.5250 297° West 267 307 8,000 -1,380 Descending FlightAware
08:43AM 53.4080 -113.5920 295° West 235 270 7,300 -1,440 Descending FlightAware
08:44AM 53.4190 -113.6280 297° West 229 264 6,800 -1,200 Descending FlightAware
08:44AM 53.4300 -113.6630 298° West 217 250 6,400 -1,200 Descending FlightAware
08:44AM 53.4430 -113.7090 295° West 219 252 5,800 -1,200 Descending FlightAware
08:45AM 53.4530 -113.7470 294° West 215 247 5,300 -900 Descending FlightAware
08:45AM 53.4520 -113.7700 266° West 212 244 5,100 -600 Descending FlightAware
08:45AM 53.4490 -113.7770 234° Southwest 210 242 5,000 -600 Descending FlightAware
08:45AM 53.4470 -113.7810 230° Southwest 208 239 5,000 -1,200 Level FlightAware
08:46AM 53.4370 -113.7910 211° Southwest 205 236 4,700 -1,620 Descending FlightAware
08:46AM 53.4340 -113.7920 191° South 202 232 4,600 -240 Descending FlightAware
08:46AM 53.4140 -113.8000 193° South 202 232 4,600 -960 Level FlightAware
08:47AM 53.4020 -113.7570 115° Southeast 194 223 3,800 -780 Descending FlightAware
08:47AM 53.3770 -113.7140 134° Southeast 180 207 3,800  Level FlightAware
08:47AM 53.3650 -113.6960 138° Southeast 176 203 3,800 -360 Level FlightAware
08:48AM 53.3460 -113.6620 133° Southeast 165 190 3,500 -600 Descending FlightAware
08:48AM 53.3360 -113.6460 136° Southeast 151 174 3,300 -360 Descending FlightAware
08:49AM 53.3230 -113.6240 135° Southeast 148 170 3,200 -960 Descending FlightAware
08:50AM 53.2667 -113.6000 135° Southeast 150 173 2,200 -480 Descending Edmonton Center
08:51AM 53.2667 -113.6000 135° Southeast 20 23 2,400 180 Climbing Edmonton Center